Time;durP1;ratioP1;P1;durP2;ratioP2;P2;SDS_P1;SDS_P2;PMS_P1;PMS_P2;Temp;Humidity;BMP_temperature;BMP_pressure;BME280_temperature;BME280_humidity;BME280_pressure;Samples;Min_cycle;Max_cycle;Signal;HPM_P1;HPM_P2
2020/12/17 00:00:07;;;;;;;26.93;20.37;;;6.50;99.90;;;;;;4948829;28;21050;-87
2020/12/17 00:02:33;;;;;;;32.37;23.40;;;6.60;99.90;;;;;;4934303;28;20434;-87
2020/12/17 00:04:59;;;;;;;32.43;21.27;;;6.50;99.90;;;;;;4949696;28;20618;-88
2020/12/17 00:07:27;;;;;;;29.97;22.47;;;6.50;99.90;;;;;;4921005;28;20457;-88
2020/12/17 00:09:53;;;;;;;27.23;20.37;;;6.40;99.90;;;;;;4947288;28;20252;-90
2020/12/17 00:12:24;;;;;;;28.77;19.80;;;6.40;99.90;;;;;;4925481;28;20434;-86
2020/12/17 00:14:50;;;;;;;34.43;20.80;;;6.30;99.90;;;;;;4931373;28;20302;-87
2020/12/17 00:17:22;;;;;;;26.73;18.10;;;6.30;99.90;;;;;;4936259;28;20458;-89
2020/12/17 00:19:47;;;;;;;26.20;17.77;;;6.20;99.90;;;;;;4930757;28;20574;-87
2020/12/17 00:22:16;;;;;;;25.63;17.20;;;6.20;99.90;;;;;;4934556;28;20751;-86
2020/12/17 00:24:42;;;;;;;28.47;17.83;;;6.20;99.90;;;;;;4930790;28;20183;-92
2020/12/17 00:27:08;;;;;;;26.07;18.77;;;6.20;99.90;;;;;;4933302;28;20438;-88
2020/12/17 00:29:33;;;;;;;32.13;19.30;;;6.10;99.90;;;;;;4930974;28;20218;-88
2020/12/17 00:32:05;;;;;;;27.63;19.07;;;6.20;99.90;;;;;;4934076;28;20513;-89
2020/12/17 00:34:30;;;;;;;24.23;17.87;;;6.20;99.90;;;;;;4935520;28;20222;-90
2020/12/17 00:36:56;;;;;;;25.50;18.27;;;6.20;99.90;;;;;;4934253;28;21089;-90
2020/12/17 00:39:25;;;;;;;23.40;15.83;;;6.10;99.90;;;;;;4933373;28;20203;-88
2020/12/17 00:41:51;;;;;;;26.63;17.60;;;6.10;99.90;;;;;;4935135;28;20855;-87
2020/12/17 00:44:17;;;;;;;23.20;16.37;;;6.10;99.90;;;;;;4934922;28;20786;-87
2020/12/17 00:46:48;;;;;;;25.67;15.67;;;6.00;99.90;;;;;;4919087;28;20577;-86
2020/12/17 00:49:14;;;;;;;23.70;15.80;;;5.90;99.90;;;;;;4931536;28;20829;-86
2020/12/17 00:51:42;;;;;;;20.47;15.60;;;5.80;99.90;;;;;;4935426;28;20730;-88
2020/12/17 00:54:08;;;;;;;21.83;15.07;;;5.80;99.90;;;;;;4950492;28;20270;-87
2020/12/17 00:56:34;;;;;;;23.83;16.90;;;5.80;99.90;;;;;;4934385;28;20418;-87
2020/12/17 00:59:03;;;;;;;26.73;18.77;;;5.80;99.90;;;;;;4948188;28;20933;-85
2020/12/17 01:01:31;;;;;;;25.87;18.20;;;5.90;99.90;;;;;;4933200;28;20435;-87
2020/12/17 01:03:57;;;;;;;28.43;17.63;;;5.80;99.90;;;;;;4948831;28;20450;-92
2020/12/17 01:06:22;;;;;;;26.90;16.67;;;5.70;99.90;;;;;;4915860;28;20727;-88
2020/12/17 01:08:59;;;;;;;27.97;18.10;;;5.70;99.90;;;;;;4932278;28;20207;-86
2020/12/17 01:11:32;;;;;;;29.57;17.90;;;5.60;99.90;;;;;;4933168;28;20628;-86
2020/12/17 01:14:10;;;;;;;25.23;17.20;;;5.50;99.90;;;;;;4934289;29;20442;-89
2020/12/17 01:16:49;;;;;;;22.53;16.30;;;5.50;99.90;;;;;;4935806;28;20424;-87
2020/12/17 01:19:17;;;;;;;25.23;15.90;;;5.40;99.90;;;;;;4932933;28;20463;-84
2020/12/17 01:21:43;;;;;;;28.73;16.03;;;5.40;99.90;;;;;;4948401;28;20969;-86
2020/12/17 01:24:12;;;;;;;26.30;15.97;;;5.30;99.90;;;;;;4940236;28;20435;-85
2020/12/17 01:26:37;;;;;;;24.63;16.70;;;5.30;99.90;;;;;;4917970;28;20307;-87
2020/12/17 01:29:03;;;;;;;27.47;16.17;;;5.20;99.90;;;;;;4935273;28;20919;-87
2020/12/17 01:31:29;;;;;;;28.40;16.60;;;5.20;99.90;;;;;;4953841;28;20190;-86
2020/12/17 01:33:55;;;;;;;32.03;18.07;;;5.10;99.90;;;;;;4954649;28;20190;-91
2020/12/17 01:36:20;;;;;;;32.80;17.10;;;5.10;99.90;;;;;;4939316;28;20238;-87
2020/12/17 01:38:46;;;;;;;29.93;16.30;;;5.10;99.90;;;;;;4939193;28;20212;-88
2020/12/17 01:41:19;;;;;;;24.43;16.33;;;5.10;99.90;;;;;;4936052;28;20459;-93
2020/12/17 01:43:46;;;;;;;30.00;17.93;;;5.00;99.90;;;;;;4956169;28;20175;-92
2020/12/17 01:46:14;;;;;;;36.97;18.43;;;5.00;99.90;;;;;;4956053;28;20442;-91
2020/12/17 01:48:43;;;;;;;26.87;17.03;;;5.00;99.90;;;;;;4952512;28;20454;-87
2020/12/17 01:51:10;;;;;;;34.17;18.27;;;5.10;99.90;;;;;;4951799;28;20949;-88
2020/12/17 01:53:38;;;;;;;31.23;17.90;;;5.00;99.90;;;;;;4928280;28;20414;-85
2020/12/17 01:56:31;;;;;;;28.40;16.90;;;5.00;99.90;;;;;;4954709;28;20474;-91
2020/12/17 01:59:07;;;;;;;22.70;13.40;;;4.90;99.90;;;;;;4933360;28;20490;-89
2020/12/17 02:01:33;;;;;;;26.73;16.13;;;4.80;99.90;;;;;;4952549;28;20607;-86
2020/12/17 02:04:01;;;;;;;25.17;16.10;;;4.80;99.90;;;;;;4937579;28;20431;-90
2020/12/17 02:06:27;;;;;;;29.40;16.20;;;4.70;99.90;;;;;;4935371;28;20517;-86
2020/12/17 02:08:52;;;;;;;26.10;16.40;;;4.70;99.90;;;;;;4921434;28;20458;-86
2020/12/17 02:11:21;;;;;;;19.47;14.80;;;4.60;99.90;;;;;;4937441;28;20266;-85
2020/12/17 02:13:50;;;;;;;22.00;13.83;;;4.60;99.90;;;;;;4934737;28;20816;-86
2020/12/17 02:16:16;;;;;;;26.87;13.83;;;4.60;99.90;;;;;;4947166;28;20487;-91
2020/12/17 02:18:43;;;;;;;19.93;12.10;;;4.50;99.90;;;;;;4931157;28;20447;-92
2020/12/17 02:21:14;;;;;;;18.63;13.07;;;4.50;99.90;;;;;;4924427;28;20435;-88
2020/12/17 02:23:47;;;;;;;16.80;11.43;;;4.50;99.90;;;;;;4949987;28;20888;-87
2020/12/17 02:26:20;;;;;;;19.17;12.50;;;4.40;99.90;;;;;;4948718;28;20509;-86
2020/12/17 02:28:48;;;;;;;21.03;14.00;;;4.40;99.90;;;;;;4941875;28;20626;-90
2020/12/17 02:31:14;;;;;;;30.27;15.80;;;4.40;99.90;;;;;;4955594;28;20910;-91
2020/12/17 02:33:40;;;;;;;26.47;17.00;;;4.40;99.90;;;;;;4920196;28;20503;-85
2020/12/17 02:36:08;;;;;;;29.10;17.17;;;4.30;99.90;;;;;;4936078;28;20230;-86
2020/12/17 02:38:45;;;;;;;28.60;18.20;;;4.20;99.90;;;;;;4937815;28;20187;-86
2020/12/17 02:41:11;;;;;;;27.10;15.50;;;4.10;99.90;;;;;;4950485;28;20825;-88
2020/12/17 02:43:40;;;;;;;27.97;16.10;;;4.10;99.90;;;;;;4936459;28;20454;-89
2020/12/17 02:46:10;;;;;;;27.17;17.50;;;4.10;99.90;;;;;;4936239;28;20454;-86
2020/12/17 02:48:54;;;;;;;23.37;16.33;;;4.10;99.90;;;;;;4955685;28;20501;-87
2020/12/17 02:51:21;;;;;;;22.70;16.23;;;4.10;99.90;;;;;;4937067;28;20441;-86
2020/12/17 02:53:47;;;;;;;25.33;15.33;;;4.00;99.90;;;;;;4918782;28;21131;-85
2020/12/17 02:56:19;;;;;;;23.30;17.07;;;4.00;99.90;;;;;;4951027;28;20458;-89
2020/12/17 02:58:50;;;;;;;22.80;14.33;;;4.00;99.90;;;;;;4951592;28;20810;-87
2020/12/17 03:01:16;;;;;;;22.73;14.97;;;3.90;99.90;;;;;;4933507;28;20420;-85
2020/12/17 03:03:41;;;;;;;22.80;15.50;;;3.90;99.90;;;;;;4934722;28;20948;-87
2020/12/17 03:06:07;;;;;;;23.43;14.03;;;3.90;99.90;;;;;;4936648;28;20195;-91
2020/12/17 03:08:34;;;;;;;26.90;15.33;;;3.90;99.90;;;;;;4933592;28;20195;-87
2020/12/17 03:11:00;;;;;;;18.77;14.23;;;3.90;99.90;;;;;;4935794;28;20191;-90
2020/12/17 03:13:32;;;;;;;27.57;15.00;;;3.90;99.90;;;;;;4933797;28;20426;-90
2020/12/17 03:15:58;;;;;;;24.27;15.27;;;3.90;99.90;;;;;;4919321;28;20203;-91
2020/12/17 03:18:24;;;;;;;23.90;13.93;;;3.80;99.90;;;;;;4947229;28;20434;-90
2020/12/17 03:20:49;;;;;;;20.70;14.77;;;4.00;99.90;;;;;;4933348;28;20188;-91
2020/12/17 03:23:15;;;;;;;21.17;14.60;;;4.10;99.90;;;;;;4951206;28;20242;-87
2020/12/17 03:25:41;;;;;;;28.07;15.80;;;4.10;99.90;;;;;;4931777;28;20191;-87
2020/12/17 03:28:06;;;;;;;23.80;13.83;;;4.10;99.90;;;;;;4917882;28;20199;-87
2020/12/17 03:30:38;;;;;;;20.80;14.27;;;4.20;99.90;;;;;;4932702;28;20822;-83
2020/12/17 03:33:04;;;;;;;23.20;14.53;;;4.20;99.90;;;;;;4932705;28;20194;-89
2020/12/17 03:35:32;;;;;;;21.13;13.37;;;4.30;99.90;;;;;;4918407;28;21002;-86
2020/12/17 03:38:01;;;;;;;16.53;12.93;;;4.40;99.90;;;;;;4947438;28;20525;-91
2020/12/17 03:40:30;;;;;;;19.83;14.23;;;4.40;99.90;;;;;;4928715;28;20460;-85
2020/12/17 03:42:56;;;;;;;21.97;14.70;;;4.40;99.90;;;;;;4948759;28;20466;-88
2020/12/17 03:45:27;;;;;;;25.50;14.77;;;4.40;99.90;;;;;;4930853;28;20478;-87
2020/12/17 03:48:01;;;;;;;20.23;13.90;;;4.30;99.90;;;;;;4931115;28;20246;-85
2020/12/17 03:50:35;;;;;;;28.13;14.73;;;4.30;99.90;;;;;;4914711;28;20898;-87
2020/12/17 03:53:01;;;;;;;22.07;14.10;;;4.10;99.90;;;;;;4927986;28;20963;-90
2020/12/17 03:55:27;;;;;;;23.80;14.17;;;4.00;99.90;;;;;;4941315;28;20481;-93
2020/12/17 03:57:52;;;;;;;16.47;11.93;;;4.00;99.90;;;;;;4955132;28;20193;-95
2020/12/17 04:00:21;;;;;;;18.10;11.73;;;3.90;99.90;;;;;;4952114;28;20233;-95
2020/12/17 04:02:48;;;;;;;19.57;12.03;;;3.90;99.90;;;;;;4955126;28;20226;-93
2020/12/17 04:05:16;;;;;;;19.70;13.13;;;3.80;99.90;;;;;;4956749;28;20443;-94
2020/12/17 04:07:42;;;;;;;19.30;12.40;;;3.90;99.90;;;;;;4955488;28;20418;-93
2020/12/17 04:10:08;;;;;;;23.83;15.53;;;3.90;99.90;;;;;;4954543;28;20467;-93
2020/12/17 04:12:34;;;;;;;23.83;13.53;;;3.90;99.90;;;;;;4939741;28;20282;-93
2020/12/17 04:15:05;;;;;;;16.87;14.23;;;3.80;99.90;;;;;;4974444;28;20881;-93
2020/12/17 04:17:36;;;;;;;20.00;12.80;;;3.70;99.90;;;;;;4945644;28;20439;-88
2020/12/17 04:20:04;;;;;;;20.47;14.73;;;3.80;99.90;;;;;;4945704;28;20457;-86
2020/12/17 04:22:31;;;;;;;15.73;13.10;;;3.80;99.90;;;;;;4934493;28;20509;-88
2020/12/17 04:24:57;;;;;;;22.53;13.33;;;3.90;99.90;;;;;;4941371;28;20459;-89
2020/12/17 04:27:22;;;;;;;21.67;13.40;;;4.00;99.90;;;;;;4940177;28;20431;-87
2020/12/17 04:29:56;;;;;;;20.17;13.60;;;3.90;99.90;;;;;;4941896;28;20234;-87
2020/12/17 04:32:28;;;;;;;18.33;13.63;;;3.80;99.90;;;;;;4957506;28;20205;-92
2020/12/17 04:34:53;;;;;;;20.93;13.37;;;3.80;99.90;;;;;;4954828;28;20485;-92
2020/12/17 04:37:19;;;;;;;21.43;11.97;;;3.80;99.90;;;;;;4956306;28;20521;-93
2020/12/17 04:39:50;;;;;;;16.60;12.37;;;3.70;99.90;;;;;;4953909;28;20183;-94
2020/12/17 04:42:20;;;;;;;20.40;12.63;;;3.70;99.90;;;;;;4969646;28;20214;-94
2020/12/17 04:44:47;;;;;;;19.90;13.37;;;3.60;99.90;;;;;;4951357;28;20454;-93
2020/12/17 04:47:20;;;;;;;19.80;13.73;;;3.60;99.90;;;;;;4954350;28;20429;-86
2020/12/17 04:49:53;;;;;;;19.80;14.00;;;3.70;99.90;;;;;;4955114;28;20487;-93
2020/12/17 04:52:24;;;;;;;16.33;11.87;;;3.70;99.90;;;;;;4950487;28;20478;-87
2020/12/17 04:54:52;;;;;;;33.23;13.80;;;3.70;99.90;;;;;;4970431;28;20466;-92
2020/12/17 04:57:26;;;;;;;22.00;14.20;;;3.60;99.90;;;;;;4954611;28;20532;-91
2020/12/17 05:04:38;;;;;;;;;;;;;;;;;;;;;
2020/12/17 05:07:40;;;;;;;21.57;12.97;;;3.80;99.90;;;;;;4927107;28;20513;-89
2020/12/17 05:10:06;;;;;;;21.00;14.03;;;3.90;99.90;;;;;;4958710;28;20469;-90
2020/12/17 05:12:43;;;;;;;21.03;15.70;;;3.90;99.90;;;;;;4942898;28;20433;-92
2020/12/17 05:15:14;;;;;;;32.17;15.20;;;3.90;99.90;;;;;;4939675;28;20505;-88
2020/12/17 05:17:49;;;;;;;24.37;15.30;;;3.90;99.90;;;;;;4931335;28;20439;-87
2020/12/17 05:20:16;;;;;;;20.00;13.33;;;3.90;99.90;;;;;;4940708;28;20460;-90
2020/12/17 05:22:48;;;;;;;16.43;12.63;;;3.90;99.90;;;;;;4943536;28;20514;-90
2020/12/17 05:25:19;;;;;;;16.80;13.27;;;3.80;99.90;;;;;;4921718;28;20446;-87
2020/12/17 05:27:55;;;;;;;22.67;14.33;;;3.80;99.90;;;;;;4938772;28;20992;-90
2020/12/17 05:30:39;;;;;;;18.70;13.30;;;3.70;99.90;;;;;;4938747;28;20458;-88
2020/12/17 05:33:14;;;;;;;21.77;14.13;;;3.80;99.90;;;;;;4939488;28;20470;-88
2020/12/17 05:35:46;;;;;;;20.83;13.97;;;3.90;99.90;;;;;;4937940;28;20502;-89
2020/12/17 05:38:13;;;;;;;15.60;11.90;;;3.80;99.90;;;;;;4954014;28;20435;-88
2020/12/17 05:40:45;;;;;;;16.83;13.40;;;3.90;99.90;;;;;;4924069;28;20457;-87
2020/12/17 05:43:11;;;;;;;18.17;12.80;;;3.80;99.90;;;;;;4921955;28;20524;-88
2020/12/17 05:45:37;;;;;;;18.57;12.97;;;3.80;99.90;;;;;;4924315;28;20439;-90
2020/12/17 05:48:16;;;;;;;20.93;14.77;;;3.80;99.90;;;;;;4924163;28;20470;-90
2020/12/17 05:51:06;;;;;;;20.90;13.63;;;3.80;99.90;;;;;;4940746;28;20211;-88
2020/12/17 05:53:44;;;;;;;16.10;11.90;;;3.70;99.90;;;;;;4936971;28;20973;-87
2020/12/17 05:56:20;;;;;;;17.97;12.17;;;3.70;99.90;;;;;;4937733;28;20841;-89
2020/12/17 05:58:53;;;;;;;20.57;12.07;;;3.80;99.90;;;;;;4954992;28;20484;-90
2020/12/17 06:01:30;;;;;;;14.53;11.20;;;3.80;99.90;;;;;;4940422;28;20442;-85
2020/12/17 06:03:59;;;;;;;19.33;13.23;;;4.00;99.90;;;;;;4956435;28;20453;-87
2020/12/17 06:06:42;;;;;;;16.70;12.83;;;4.10;99.90;;;;;;4956111;28;20434;-88
2020/12/17 06:09:28;;;;;;;16.50;12.40;;;4.20;99.90;;;;;;4939565;28;20584;-87
2020/12/17 06:12:03;;;;;;;15.93;11.83;;;4.20;99.90;;;;;;4956811;28;20431;-89
2020/12/17 06:14:35;;;;;;;20.90;12.60;;;4.10;99.90;;;;;;4940421;28;20982;-86
2020/12/17 06:17:20;;;;;;;24.53;16.00;;;4.10;99.90;;;;;;4957775;28;20462;-89
2020/12/17 06:19:51;;;;;;;26.23;14.33;;;4.10;99.90;;;;;;4954661;28;20463;-89
2020/12/17 06:22:23;;;;;;;19.43;12.47;;;4.10;99.90;;;;;;4924380;28;20443;-89
2020/12/17 06:24:51;;;;;;;20.63;12.90;;;4.10;99.90;;;;;;4933889;28;20474;-89
2020/12/17 06:27:26;;;;;;;19.03;13.10;;;4.10;99.90;;;;;;4941666;28;20434;-91
2020/12/17 06:30:09;;;;;;;17.87;11.37;;;4.10;99.90;;;;;;4954577;28;20461;-87
2020/12/17 06:32:46;;;;;;;21.10;12.90;;;4.00;99.90;;;;;;4937705;28;20431;-89
2020/12/17 06:35:39;;;;;;;15.70;11.27;;;3.90;99.90;;;;;;4940895;28;20474;-89
2020/12/17 06:38:15;;;;;;;15.50;11.20;;;3.80;99.90;;;;;;4954561;28;21064;-89
2020/12/17 06:41:13;;;;;;;17.60;11.10;;;3.70;99.90;;;;;;4940703;28;20760;-86
2020/12/17 06:43:51;;;;;;;18.97;12.10;;;3.60;99.90;;;;;;4939298;28;20446;-88
2020/12/17 06:46:36;;;;;;;18.10;12.77;;;3.60;99.90;;;;;;4970715;28;20442;-93
2020/12/17 06:49:10;;;;;;;15.20;11.97;;;3.60;99.90;;;;;;4952939;28;20482;-90
2020/12/17 06:51:50;;;;;;;17.33;12.57;;;3.60;99.90;;;;;;4948423;28;20570;-88
2020/12/17 06:54:19;;;;;;;18.13;12.23;;;3.60;99.90;;;;;;4931235;28;20513;-86
2020/12/17 07:00:36;;;;;;;16.40;12.43;;;3.60;99.90;;;;;;4946824;28;20547;-86
2020/12/17 07:03:02;;;;;;;19.57;12.70;;;3.80;99.90;;;;;;4933215;28;20423;-84
2020/12/17 07:05:40;;;;;;;21.40;15.27;;;4.00;99.90;;;;;;4948662;28;20466;-85
2020/12/17 07:08:09;;;;;;;23.60;14.17;;;4.10;99.90;;;;;;4934333;28;20475;-88
2020/12/17 07:10:45;;;;;;;22.90;14.70;;;4.30;99.90;;;;;;4931253;28;20458;-85
2020/12/17 07:13:38;;;;;;;21.70;12.67;;;4.40;99.90;;;;;;4932569;28;20435;-85
2020/12/17 07:16:07;;;;;;;16.33;12.17;;;4.40;99.90;;;;;;4951042;28;20839;-87
2020/12/17 07:18:39;;;;;;;18.20;12.27;;;4.50;99.90;;;;;;4917288;28;20443;-89
2020/12/17 07:21:14;;;;;;;16.93;12.87;;;4.60;99.90;;;;;;4938762;28;20445;-91
2020/12/17 07:23:42;;;;;;;17.93;13.00;;;4.80;99.90;;;;;;4950751;28;20938;-86
2020/12/17 07:26:15;;;;;;;21.70;14.10;;;4.80;99.90;;;;;;4955180;28;20457;-85
2020/12/17 07:29:05;;;;;;;18.83;14.73;;;5.00;99.90;;;;;;4938063;28;20447;-86
2020/12/17 07:31:33;;;;;;;19.97;14.17;;;4.90;99.90;;;;;;4927458;28;20461;-87
2020/12/17 07:33:59;;;;;;;21.97;14.03;;;4.90;99.90;;;;;;4949793;28;20449;-89
2020/12/17 07:36:45;;;;;;;20.57;13.27;;;5.00;99.90;;;;;;4921523;28;20475;-88
2020/12/17 07:39:11;;;;;;;18.07;13.47;;;4.80;99.90;;;;;;4949274;28;20209;-86
2020/12/17 07:41:42;;;;;;;20.20;13.27;;;4.80;99.90;;;;;;4928274;28;20447;-85
2020/12/17 07:44:14;;;;;;;18.70;13.17;;;4.70;99.90;;;;;;4931857;28;20664;-86
2020/12/17 07:46:54;;;;;;;19.07;12.77;;;4.70;99.90;;;;;;4933147;28;20566;-89
2020/12/17 07:49:24;;;;;;;18.77;13.77;;;4.80;99.90;;;;;;4952639;28;20453;-90
2020/12/17 07:51:54;;;;;;;20.50;13.00;;;4.80;99.90;;;;;;4919591;28;20978;-88
2020/12/17 07:54:27;;;;;;;20.30;14.33;;;4.60;99.90;;;;;;4935698;28;20699;-88
2020/12/17 07:57:00;;;;;;;18.87;13.13;;;4.60;99.90;;;;;;4933545;28;20439;-88
2020/12/17 07:59:31;;;;;;;17.40;12.70;;;4.60;99.90;;;;;;4917585;28;20561;-88
2020/12/17 08:01:58;;;;;;;19.50;12.80;;;4.50;99.90;;;;;;4953202;28;20973;-85
2020/12/17 08:04:35;;;;;;;15.27;11.33;;;4.50;99.90;;;;;;4951390;28;20453;-86
2020/12/17 08:07:10;;;;;;;18.97;12.77;;;4.50;99.90;;;;;;4935039;28;20484;-90
2020/12/17 08:09:57;;;;;;;16.90;12.80;;;4.50;99.90;;;;;;4934051;28;20502;-84
2020/12/17 08:12:26;;;;;;;20.13;12.93;;;4.60;99.90;;;;;;4951115;28;20458;-90
2020/12/17 08:14:53;;;;;;;18.63;13.23;;;4.60;99.90;;;;;;4932894;28;20508;-86
2020/12/17 08:17:33;;;;;;;19.53;13.00;;;4.80;99.90;;;;;;4918951;28;20455;-87
2020/12/17 08:22:59;;;;;;;23.53;14.17;;;5.10;99.90;;;;;;4952738;28;20811;-90
2020/12/17 08:25:32;;;;;;;23.53;13.20;;;5.20;99.90;;;;;;4949316;28;20458;-86
2020/12/17 08:28:00;;;;;;;25.40;14.10;;;5.40;99.90;;;;;;4919042;28;20451;-87
2020/12/17 08:30:32;;;;;;;20.37;13.60;;;5.40;99.90;;;;;;4951339;28;20496;-86
2020/12/17 08:33:01;;;;;;;17.43;12.60;;;5.50;99.90;;;;;;4950367;28;20457;-91
2020/12/17 08:35:30;;;;;;;20.70;13.47;;;5.50;99.90;;;;;;4938292;28;20496;-86
2020/12/17 08:37:56;;;;;;;22.40;14.20;;;5.60;99.90;;;;;;4938523;28;20438;-88
2020/12/17 08:40:27;;;;;;;22.87;14.10;;;5.80;99.90;;;;;;4950115;28;20462;-86
2020/12/17 08:43:05;;;;;;;19.60;14.17;;;5.90;99.90;;;;;;4917088;28;20595;-87
2020/12/17 08:45:36;;;;;;;19.23;12.10;;;6.10;99.90;;;;;;4937579;28;20441;-90
2020/12/17 08:48:28;;;;;;;19.27;13.97;;;6.20;99.90;;;;;;4933891;28;20443;-89
2020/12/17 08:51:01;;;;;;;19.07;12.97;;;6.30;99.90;;;;;;4936240;28;20455;-89
2020/12/17 08:53:35;;;;;;;21.60;13.87;;;6.40;99.90;;;;;;4937280;28;20440;-87
2020/12/17 08:56:05;;;;;;;15.17;11.50;;;6.50;99.90;;;;;;4919279;28;20481;-89
2020/12/17 08:58:44;;;;;;;18.47;12.67;;;6.50;99.90;;;;;;4949265;28;20442;-86
2020/12/17 09:01:15;;;;;;;18.50;12.23;;;6.60;99.90;;;;;;4951157;28;20549;-86
2020/12/17 09:03:47;;;;;;;17.40;13.33;;;6.70;99.90;;;;;;4947109;28;20506;-86
2020/12/17 09:06:26;;;;;;;14.10;11.73;;;6.90;99.90;;;;;;4918458;28;20465;-85
2020/12/17 09:08:56;;;;;;;16.87;12.03;;;6.90;99.90;;;;;;4951181;28;20509;-83
2020/12/17 09:11:36;;;;;;;21.60;12.97;;;6.90;99.90;;;;;;4916183;28;20520;-87
2020/12/17 09:17:52;;;;;;;18.30;12.63;;;7.10;99.90;;;;;;4950020;28;20422;-88
2020/12/17 09:20:24;;;;;;;18.87;12.43;;;7.20;99.90;;;;;;4937145;28;20597;-87
2020/12/17 09:23:23;;;;;;;22.30;12.73;;;7.30;99.90;;;;;;4936878;28;20923;-86
2020/12/17 09:26:07;;;;;;;18.20;12.37;;;7.30;99.90;;;;;;4915876;29;20434;-88
2020/12/17 09:28:41;;;;;;;18.40;11.50;;;7.40;99.90;;;;;;4952222;28;20457;-87
2020/12/17 09:31:30;;;;;;;19.93;12.70;;;7.40;99.90;;;;;;4934154;28;20465;-84
2020/12/17 09:34:23;;;;;;;14.10;11.20;;;7.60;99.90;;;;;;4935054;28;20438;-85
2020/12/17 09:37:10;;;;;;;13.70;10.97;;;7.60;99.90;;;;;;4938185;28;20434;-88
2020/12/17 09:39:51;;;;;;;20.47;12.87;;;7.50;99.90;;;;;;4950282;28;20989;-89
2020/12/17 09:42:28;;;;;;;18.63;12.30;;;7.50;99.90;;;;;;4920224;28;20488;-90
2020/12/17 09:44:59;;;;;;;18.87;11.90;;;7.50;99.90;;;;;;4950826;28;20586;-87
2020/12/17 09:47:57;;;;;;;17.00;12.10;;;7.50;99.90;;;;;;4935343;28;20458;-89
2020/12/17 09:50:26;;;;;;;16.10;10.90;;;7.50;99.90;;;;;;4939046;28;20500;-86
2020/12/17 09:57:12;;;;;;;;;;;;;;;;;;;;;
2020/12/17 09:59:45;;;;;;;14.30;9.30;;;8.00;99.90;;;;;;4947950;28;20463;-86
2020/12/17 10:02:24;;;;;;;13.80;9.57;;;8.10;99.90;;;;;;4953418;28;20442;-85
2020/12/17 10:07:54;;;;;;;25.43;11.80;;;8.40;99.90;;;;;;4945199;28;20442;-86
2020/12/17 10:10:23;;;;;;;17.37;9.77;;;8.30;99.90;;;;;;4932876;28;20538;-86
2020/12/17 10:13:09;;;;;;;14.80;10.13;;;8.30;99.90;;;;;;4928518;29;20487;-85
2020/12/17 10:15:35;;;;;;;10.73;9.03;;;8.20;99.90;;;;;;4952175;28;20679;-89
2020/12/17 10:18:05;;;;;;;17.87;9.90;;;8.10;99.90;;;;;;4934125;28;20786;-88
2020/12/17 10:20:35;;;;;;;19.33;10.10;;;8.10;99.90;;;;;;4936059;28;20467;-86
2020/12/17 10:23:01;;;;;;;13.67;9.00;;;8.10;99.90;;;;;;4937148;28;20450;-87
2020/12/17 10:25:45;;;;;;;13.37;9.50;;;8.10;99.90;;;;;;4935148;28;20439;-84
2020/12/17 10:28:22;;;;;;;13.80;9.40;;;8.10;99.90;;;;;;4934925;28;20514;-84
2020/12/17 10:30:54;;;;;;;18.50;9.57;;;8.10;99.90;;;;;;4951069;28;20845;-87
2020/12/17 10:33:23;;;;;;;12.83;9.63;;;8.40;99.90;;;;;;4935099;28;20449;-87
2020/12/17 10:35:49;;;;;;;17.30;9.40;;;8.60;99.90;;;;;;4948767;28;20476;-87
2020/12/17 10:38:26;;;;;;;12.37;9.20;;;8.80;99.90;;;;;;4947599;28;20503;-86
2020/12/17 10:44:04;;;;;;;12.77;8.70;;;9.00;99.90;;;;;;4973762;28;20446;-93
2020/12/17 10:46:44;;;;;;;12.43;9.60;;;9.10;99.90;;;;;;4952735;28;20447;-91
2020/12/17 10:49:15;;;;;;;11.90;8.60;;;9.10;99.90;;;;;;4963386;28;20454;-85
2020/12/17 10:51:42;;;;;;;11.43;8.57;;;9.00;99.90;;;;;;4938420;28;20431;-87
2020/12/17 11:35:06;;;;;;;10.00;8.40;;;9.00;99.90;;;;;;5721696;22;20498;-85
2020/12/17 12:25:39;;;;;;;;;;;;;;;;;;;;;
2020/12/17 12:28:54;;;;;;;13.33;6.40;;;11.20;99.90;;;;;;4986698;28;21063;-88
2020/12/17 12:31:29;;;;;;;7.33;5.80;;;11.40;99.90;;;;;;4959171;28;20441;-86
2020/12/17 12:34:12;;;;;;;10.97;6.20;;;11.50;99.90;;;;;;4971766;28;20453;-86
2020/12/17 12:36:55;;;;;;;7.20;5.70;;;11.50;99.90;;;;;;4969152;28;20429;-87
2020/12/17 12:39:32;;;;;;;7.13;5.10;;;11.50;99.90;;;;;;4965799;28;20465;-89
2020/12/17 12:41:59;;;;;;;7.73;5.77;;;11.40;99.90;;;;;;4966706;28;20451;-87
2020/12/17 12:44:28;;;;;;;5.77;5.10;;;11.40;99.90;;;;;;4972738;28;20440;-87
2020/12/17 12:47:07;;;;;;;7.70;5.77;;;11.40;99.90;;;;;;4971882;28;20421;-85
2020/12/17 12:49:33;;;;;;;8.10;5.67;;;11.50;99.90;;;;;;4955792;28;20464;-87
2020/12/17 12:52:05;;;;;;;6.70;5.27;;;11.40;99.90;;;;;;4954842;28;20430;-87
2020/12/17 12:54:37;;;;;;;7.20;5.10;;;11.30;99.90;;;;;;4968333;28;20209;-87
2020/12/17 12:57:03;;;;;;;6.70;5.60;;;11.30;99.90;;;;;;4973462;28;20441;-86
2020/12/17 12:59:30;;;;;;;8.33;6.33;;;11.40;99.90;;;;;;4968662;28;20853;-87
2020/12/17 13:02:25;;;;;;;7.57;5.63;;;11.50;99.90;;;;;;4942903;28;20421;-88
2020/12/17 13:05:03;;;;;;;11.10;5.00;;;11.50;99.90;;;;;;4959191;28;21369;-88
2020/12/17 13:07:29;;;;;;;7.30;5.13;;;11.50;99.90;;;;;;4975396;28;20444;-79
2020/12/17 13:09:55;;;;;;;8.37;5.23;;;11.60;99.90;;;;;;4949643;28;20465;-77
2020/12/17 13:12:56;;;;;;;5.93;4.93;;;11.60;99.90;;;;;;4955092;28;20350;-88
2020/12/17 13:18:33;;;;;;;9.23;5.37;;;11.50;99.90;;;;;;4985707;28;20429;-86
2020/12/17 13:21:34;;;;;;;11.53;5.83;;;11.40;99.90;;;;;;4967924;28;20987;-86
2020/12/17 13:24:23;;;;;;;6.77;5.60;;;11.40;99.90;;;;;;4985582;28;20514;-87
2020/12/17 13:27:04;;;;;;;8.10;6.10;;;11.40;99.90;;;;;;4969961;28;20437;-88
2020/12/17 13:29:50;;;;;;;7.20;6.17;;;11.50;99.90;;;;;;4989050;28;20460;-86
2020/12/17 13:33:02;;;;;;;9.33;6.10;;;11.50;99.90;;;;;;4988755;28;20453;-89
2020/12/17 13:35:34;;;;;;;8.87;6.70;;;11.50;99.90;;;;;;4955683;28;20829;-88
2020/12/17 13:38:06;;;;;;;11.90;5.23;;;11.50;99.90;;;;;;4973950;28;20854;-88
2020/12/17 13:40:35;;;;;;;11.30;7.20;;;11.50;99.90;;;;;;4973986;28;20448;-87
2020/12/17 13:43:01;;;;;;;11.60;7.00;;;11.50;99.90;;;;;;4971786;28;20448;-85
2020/12/17 13:45:37;;;;;;;10.87;6.90;;;11.40;99.90;;;;;;4974764;28;20440;-85
2020/12/17 13:48:49;;;;;;;8.30;7.00;;;11.30;99.90;;;;;;4958832;28;20518;-88
2020/12/17 13:51:33;;;;;;;9.53;7.00;;;11.30;99.90;;;;;;4928209;29;20719;-87
2020/12/17 13:54:02;;;;;;;8.63;7.33;;;11.30;99.90;;;;;;4928588;29;20539;-84
2020/12/17 13:56:41;;;;;;;9.87;6.90;;;11.40;99.90;;;;;;4961974;28;20475;-88
2020/12/17 13:59:33;;;;;;;7.00;6.30;;;11.30;99.90;;;;;;4959622;28;20825;-88
2020/12/17 14:02:02;;;;;;;10.20;6.57;;;11.30;99.90;;;;;;4955186;28;20555;-88
2020/12/17 14:04:28;;;;;;;8.23;6.17;;;11.40;99.90;;;;;;4969448;28;20444;-87
2020/12/17 14:06:59;;;;;;;9.40;6.27;;;11.50;99.90;;;;;;4988422;28;20433;-85
2020/12/17 14:09:25;;;;;;;6.00;5.33;;;11.60;99.90;;;;;;4969406;28;20210;-88
2020/12/17 14:11:55;;;;;;;8.50;6.27;;;11.50;99.90;;;;;;4955740;28;20468;-86
2020/12/17 14:14:30;;;;;;;9.37;6.00;;;11.60;99.90;;;;;;4966800;28;20467;-92
2020/12/17 14:17:01;;;;;;;7.93;6.00;;;11.70;99.90;;;;;;4933738;28;20463;-88
2020/12/17 14:19:49;;;;;;;12.13;6.40;;;11.70;99.90;;;;;;4952690;28;21068;-88
2020/12/17 14:22:18;;;;;;;10.50;5.73;;;11.60;99.90;;;;;;4976178;28;20510;-85
2020/12/17 14:25:12;;;;;;;6.07;5.47;;;11.60;99.90;;;;;;4970808;28;20449;-83
2020/12/17 14:28:02;;;;;;;9.10;7.23;;;11.40;99.90;;;;;;4972262;28;20441;-86
2020/12/17 14:37:17;;;;;;;13.23;7.00;;;11.00;99.90;;;;;;4931913;29;20794;-87
2020/12/17 14:40:14;;;;;;;10.17;7.00;;;10.90;99.90;;;;;;4881944;29;20473;-88
2020/12/17 14:43:09;;;;;;;11.10;7.83;;;10.90;99.90;;;;;;4945160;28;20477;-86
2020/12/17 14:46:00;;;;;;;9.00;6.60;;;10.80;99.90;;;;;;4944949;28;20958;-84
2020/12/17 14:48:32;;;;;;;12.23;8.03;;;10.70;99.90;;;;;;4974202;28;20437;-82
2020/12/17 14:51:22;;;;;;;12.83;7.50;;;10.60;99.90;;;;;;4994552;28;20445;-87
2020/12/17 14:53:55;;;;;;;12.30;6.40;;;10.60;99.90;;;;;;4973022;28;21061;-86
2020/12/17 14:56:38;;;;;;;9.87;7.47;;;10.40;99.90;;;;;;4987161;28;20509;-83
2020/12/17 14:59:07;;;;;;;11.57;7.60;;;10.30;99.90;;;;;;4961420;28;20532;-90
2020/12/17 15:01:33;;;;;;;8.80;7.20;;;10.20;99.90;;;;;;4976037;28;20460;-85
2020/12/17 15:04:09;;;;;;;8.73;7.33;;;10.10;99.90;;;;;;4982573;28;20468;-82
2020/12/17 15:06:46;;;;;;;12.90;7.40;;;9.90;99.90;;;;;;4963564;28;20441;-87
2020/12/17 15:09:15;;;;;;;9.07;7.10;;;9.90;99.90;;;;;;4974086;28;20475;-87
2020/12/17 15:11:51;;;;;;;11.23;7.60;;;9.80;99.90;;;;;;4956895;28;20551;-81
2020/12/17 15:14:28;;;;;;;8.00;7.20;;;9.70;99.90;;;;;;4962857;28;20449;-81
2020/12/17 15:17:07;;;;;;;16.00;7.10;;;9.60;99.90;;;;;;4970802;28;20537;-85